createdAt,value
2023-01-07T00:01:41.297Z,1.70
2023-01-07T00:04:11.645Z,2.00
2023-01-07T00:06:40.886Z,2.10
2023-01-07T00:09:12.489Z,2.20
2023-01-07T00:11:41.516Z,2.20
2023-01-07T00:14:10.498Z,2.30
2023-01-07T00:16:38.454Z,2.30
2023-01-07T00:19:07.290Z,2.50
2023-01-07T00:21:34.503Z,2.40
2023-01-07T00:24:04.111Z,2.30
2023-01-07T00:26:33.670Z,2.20
2023-01-07T00:29:00.815Z,2.40
2023-01-07T00:31:31.291Z,2.50
2023-01-07T00:33:58.411Z,2.80
2023-01-07T00:36:31.870Z,2.70
2023-01-07T00:39:08.828Z,2.60
2023-01-07T00:41:36.064Z,2.50
2023-01-07T00:44:03.352Z,2.50
2023-01-07T00:46:30.324Z,2.60
2023-01-07T00:48:57.479Z,2.70
2023-01-07T00:51:24.541Z,2.70
2023-01-07T00:53:51.531Z,2.70
2023-01-07T00:56:19.250Z,2.80
2023-01-07T00:58:46.754Z,2.80
2023-01-07T01:01:14.503Z,2.90
2023-01-07T01:03:41.984Z,2.90
2023-01-07T01:06:13.709Z,2.80
2023-01-07T01:08:47.459Z,2.60
2023-01-07T01:11:16.188Z,2.50
2023-01-07T01:13:45.099Z,2.80
2023-01-07T01:16:17.816Z,2.80
2023-01-07T01:18:45.983Z,2.90
2023-01-07T01:21:14.728Z,2.90
2023-01-07T01:23:42.904Z,2.90
2023-01-07T01:26:15.263Z,2.90
2023-01-07T01:28:43.524Z,2.60
2023-01-07T01:31:11.430Z,2.50
2023-01-07T01:33:38.363Z,2.40
2023-01-07T01:36:11.461Z,2.30
2023-01-07T01:38:38.460Z,2.40
2023-01-07T01:41:06.315Z,2.60
2023-01-07T01:43:39.882Z,3.00
2023-01-07T01:46:17.005Z,2.90
2023-01-07T01:48:53.978Z,3.00
2023-01-07T01:51:24.981Z,3.30
2023-01-07T01:53:52.473Z,3.20
2023-01-07T01:56:33.816Z,3.20
2023-01-07T01:59:07.161Z,3.30
2023-01-07T02:01:35.802Z,3.20
2023-01-07T02:04:10.783Z,3.30
2023-01-07T02:06:45.621Z,3.20
2023-01-07T02:09:13.563Z,3.30
2023-01-07T02:11:54.554Z,3.40
2023-01-07T02:14:40.162Z,3.30
2023-01-07T02:17:19.765Z,3.30
2023-01-07T02:19:59.480Z,3.40
2023-01-07T02:22:47.571Z,3.30
2023-01-07T02:25:29.485Z,3.40
2023-01-07T02:28:27.429Z,3.40
2023-01-07T02:31:18.818Z,3.50
2023-01-07T02:33:51.958Z,3.50
2023-01-07T02:36:30.332Z,3.50
2023-01-07T02:39:21.892Z,3.60
2023-01-07T02:41:59.121Z,3.50
2023-01-07T02:44:42.695Z,3.60
2023-01-07T02:47:28.657Z,3.50
2023-01-07T02:49:55.786Z,3.50
2023-01-07T02:52:28.760Z,3.50
2023-01-07T02:55:02.920Z,3.50
2023-01-07T02:58:06.769Z,3.50
2023-01-07T03:00:51.899Z,3.40
2023-01-07T03:03:37.726Z,3.50
2023-01-07T03:06:17.619Z,3.30
2023-01-07T03:09:08.526Z,3.20
2023-01-07T03:11:47.151Z,3.10
2023-01-07T03:14:26.586Z,2.90
2023-01-07T03:16:57.895Z,3.00
2023-01-07T03:19:30.581Z,3.20
2023-01-07T03:22:00.031Z,3.30
2023-01-07T03:24:28.134Z,3.30
2023-01-07T03:26:57.799Z,3.40
2023-01-07T03:29:25.275Z,3.40
2023-01-07T03:32:16.964Z,3.50
2023-01-07T03:34:45.086Z,3.50
2023-01-07T03:37:20.055Z,3.40
2023-01-07T03:39:48.457Z,3.30
2023-01-07T03:42:38.261Z,3.40
2023-01-07T03:45:10.573Z,3.20
2023-01-07T03:47:39.597Z,3.10
2023-01-07T03:50:06.837Z,2.90
2023-01-07T03:52:33.841Z,2.70
2023-01-07T03:55:00.842Z,2.50
2023-01-07T03:57:29.297Z,2.20
2023-01-07T03:59:56.238Z,2.10
2023-01-07T04:02:23.238Z,2.40
2023-01-07T04:04:50.391Z,2.30
2023-01-07T04:07:17.356Z,2.50
2023-01-07T04:09:44.331Z,2.80
2023-01-07T04:12:11.217Z,2.70
2023-01-07T04:14:38.183Z,2.50
2023-01-07T04:17:05.106Z,2.50
2023-01-07T04:19:32.129Z,2.40
2023-01-07T04:21:59.536Z,2.20
2023-01-07T04:24:26.653Z,2.10
2023-01-07T04:26:53.531Z,2.10
2023-01-07T04:29:21.055Z,2.00
2023-01-07T04:31:48.903Z,2.00
2023-01-07T04:34:15.883Z,2.00
2023-01-07T04:36:42.769Z,1.90
2023-01-07T04:39:09.758Z,1.90
2023-01-07T04:41:36.724Z,2.00
2023-01-07T04:44:03.710Z,2.00
2023-01-07T04:46:30.754Z,2.00
2023-01-07T04:48:57.712Z,2.00
2023-01-07T04:51:24.627Z,2.00
2023-01-07T04:53:51.573Z,2.10
2023-01-07T04:56:18.513Z,2.10
2023-01-07T04:58:45.441Z,2.10
2023-01-07T05:01:12.661Z,2.10
2023-01-07T05:03:39.636Z,2.10
2023-01-07T05:06:06.762Z,1.90
2023-01-07T05:08:33.721Z,1.90
2023-01-07T05:11:02.174Z,1.90
2023-01-07T05:13:31.661Z,2.00
2023-01-07T05:15:58.867Z,2.10
2023-01-07T05:18:25.828Z,2.20
2023-01-07T05:20:52.734Z,2.40
2023-01-07T05:23:19.656Z,2.70
2023-01-07T05:25:46.610Z,2.70
2023-01-07T05:28:13.627Z,2.80
2023-01-07T05:30:40.725Z,2.70
2023-01-07T05:33:08.931Z,2.70
2023-01-07T05:35:35.941Z,2.70
2023-01-07T05:38:03.045Z,2.80
2023-01-07T05:40:29.917Z,2.70
2023-01-07T05:42:56.925Z,2.70
2023-01-07T05:45:23.910Z,2.60
2023-01-07T05:47:50.873Z,2.50
2023-01-07T05:50:17.857Z,2.50
2023-01-07T05:52:44.791Z,2.30
2023-01-07T05:55:11.877Z,2.20
2023-01-07T05:57:38.799Z,2.10
2023-01-07T06:00:06.506Z,2.20
2023-01-07T06:02:33.427Z,2.10
2023-01-07T06:05:00.437Z,2.20
2023-01-07T06:07:27.615Z,2.10
2023-01-07T06:09:54.601Z,2.20
2023-01-07T06:12:21.473Z,2.10
2023-01-07T06:14:48.478Z,1.80
2023-01-07T06:17:15.483Z,1.80
2023-01-07T06:19:42.369Z,1.80
2023-01-07T06:22:09.358Z,1.70
2023-01-07T06:24:36.253Z,1.70
2023-01-07T06:27:03.181Z,1.80
2023-01-07T06:29:30.091Z,1.80
2023-01-07T06:31:57.137Z,1.70
2023-01-07T06:34:24.055Z,1.70
2023-01-07T06:36:50.985Z,1.70
2023-01-07T06:39:18.038Z,1.50
2023-01-07T06:41:44.928Z,1.40
2023-01-07T06:44:11.872Z,1.40
2023-01-07T06:46:38.814Z,1.60
2023-01-07T06:49:05.889Z,1.40
2023-01-07T06:51:32.771Z,1.50
2023-01-07T06:53:59.755Z,1.30
2023-01-07T06:56:26.667Z,1.30
2023-01-07T06:58:53.730Z,1.10
2023-01-07T07:01:20.770Z,1.10
2023-01-07T07:03:47.800Z,1.50
2023-01-07T07:06:14.728Z,1.40
2023-01-07T07:08:41.680Z,1.50
2023-01-07T07:11:08.691Z,1.50
2023-01-07T07:13:36.119Z,1.40
2023-01-07T07:16:03.133Z,1.70
2023-01-07T07:18:30.705Z,1.80
2023-01-07T07:20:58.750Z,2.10
2023-01-07T07:23:25.706Z,2.20
2023-01-07T07:25:52.743Z,2.30
2023-01-07T07:28:19.661Z,2.50
2023-01-07T07:30:48.036Z,2.50
2023-01-07T07:33:15.684Z,2.70
2023-01-07T07:35:42.896Z,2.70
2023-01-07T07:38:10.037Z,2.70
2023-01-07T07:40:37.005Z,2.90
2023-01-07T07:43:10.461Z,3.00
2023-01-07T07:45:40.302Z,3.10
2023-01-07T07:48:08.285Z,3.10
2023-01-07T07:50:36.204Z,3.10
2023-01-07T07:53:03.369Z,3.20
2023-01-07T07:55:30.668Z,3.20
2023-01-07T07:58:01.250Z,3.10
2023-01-07T08:00:28.173Z,3.20
2023-01-07T08:03:01.214Z,3.20
2023-01-07T08:05:28.363Z,3.30
2023-01-07T08:07:56.461Z,3.30
2023-01-07T08:10:24.042Z,3.30
2023-01-07T08:12:51.041Z,3.40
2023-01-07T08:15:18.058Z,3.50
2023-01-07T08:17:45.093Z,3.40
2023-01-07T08:20:12.752Z,3.50
2023-01-07T08:22:39.730Z,3.50
2023-01-07T08:25:07.055Z,3.50
2023-01-07T08:27:33.977Z,3.50
2023-01-07T08:30:00.987Z,3.40
2023-01-07T08:32:27.942Z,3.50
2023-01-07T08:34:54.906Z,3.50
2023-01-07T08:37:21.825Z,3.50
2023-01-07T08:39:48.748Z,3.40
2023-01-07T08:42:15.643Z,3.50
2023-01-07T08:44:42.605Z,3.40
2023-01-07T08:47:09.503Z,3.40
2023-01-07T08:49:36.431Z,3.50
2023-01-07T08:52:03.430Z,3.50
2023-01-07T08:54:30.386Z,3.40
2023-01-07T08:56:57.320Z,3.50
2023-01-07T08:59:24.347Z,3.50
2023-01-07T09:01:51.340Z,3.60
2023-01-07T09:04:18.314Z,3.60
2023-01-07T09:06:45.295Z,3.50
2023-01-07T09:09:14.434Z,3.50
2023-01-07T09:11:41.376Z,3.50
2023-01-07T09:14:08.408Z,3.50
2023-01-07T09:16:35.485Z,3.50
2023-01-07T09:19:02.503Z,3.60
2023-01-07T09:21:29.430Z,3.70
2023-01-07T09:23:56.361Z,3.70
2023-01-07T09:26:23.304Z,3.90
2023-01-07T09:28:50.218Z,4.00
2023-01-07T09:31:17.193Z,4.10
2023-01-07T09:33:44.185Z,4.20
2023-01-07T09:36:11.130Z,4.30
2023-01-07T09:38:38.064Z,4.30
2023-01-07T09:41:05.944Z,4.40
2023-01-07T09:43:59.691Z,4.40
2023-01-07T09:46:28.057Z,4.50
2023-01-07T09:48:59.427Z,4.60
2023-01-07T09:51:39.790Z,4.80
2023-01-07T09:54:33.943Z,4.80
2023-01-07T09:57:01.025Z,4.80
2023-01-07T09:59:28.342Z,4.80
2023-01-07T10:02:14.211Z,4.90
2023-01-07T10:05:10.532Z,4.90
2023-01-07T10:07:47.874Z,4.90
2023-01-07T10:10:14.800Z,4.90
2023-01-07T10:13:19.053Z,4.90
2023-01-07T10:16:01.319Z,4.90
2023-01-07T10:18:43.528Z,4.90
2023-01-07T10:21:44.513Z,4.90
2023-01-07T10:24:24.018Z,4.90
2023-01-07T10:26:56.227Z,4.80
2023-01-07T10:29:34.030Z,4.80
2023-01-07T10:32:19.558Z,4.80
2023-01-07T10:34:49.013Z,4.80
2023-01-07T10:37:31.110Z,4.70
2023-01-07T10:40:02.723Z,4.80
2023-01-07T10:42:32.367Z,4.70
2023-01-07T10:45:15.662Z,4.80
2023-01-07T10:48:24.393Z,4.80
2023-01-07T10:51:09.082Z,4.70
2023-01-07T10:53:58.148Z,4.60
2023-01-07T10:56:39.303Z,4.60
2023-01-07T10:59:15.050Z,4.60
2023-01-07T11:01:48.764Z,4.60
2023-01-07T11:04:16.741Z,4.50
2023-01-07T11:06:55.558Z,4.50
2023-01-07T11:09:34.689Z,4.50
2023-01-07T11:12:09.049Z,4.50
2023-01-07T11:14:41.046Z,4.50
2023-01-07T11:17:18.032Z,4.50
2023-01-07T11:19:52.500Z,4.50
2023-01-07T11:22:30.368Z,4.40
2023-01-07T11:24:59.444Z,4.50
2023-01-07T11:27:30.355Z,4.50
2023-01-07T11:30:19.929Z,4.40
2023-01-07T11:33:03.102Z,4.50
2023-01-07T11:35:30.190Z,4.60
2023-01-07T11:37:58.779Z,4.60
2023-01-07T11:40:31.857Z,4.70
2023-01-07T11:43:17.213Z,4.60
2023-01-07T11:46:19.706Z,4.60
2023-01-07T11:48:56.309Z,4.50
2023-01-07T11:51:24.697Z,4.40
2023-01-07T11:53:55.993Z,4.40
2023-01-07T11:56:27.650Z,4.40
2023-01-07T11:59:15.346Z,4.30
2023-01-07T12:01:53.652Z,4.20
2023-01-07T12:04:34.301Z,4.10
2023-01-07T12:07:13.969Z,4.00
2023-01-07T12:09:43.552Z,3.80
2023-01-07T12:12:31.925Z,3.70
2023-01-07T12:15:16.540Z,3.70
2023-01-07T12:17:49.572Z,3.80
2023-01-07T12:20:49.683Z,3.80
2023-01-07T12:23:30.870Z,3.70
2023-01-07T12:26:19.371Z,3.70
2023-01-07T12:28:55.332Z,3.70
2023-01-07T12:31:41.965Z,3.60
2023-01-07T12:34:38.088Z,3.60
2023-01-07T12:37:28.262Z,3.60
2023-01-07T12:40:06.912Z,3.60
2023-01-07T12:42:39.357Z,3.60
2023-01-07T12:45:16.276Z,3.40
2023-01-07T12:47:52.290Z,3.40
2023-01-07T12:50:34.861Z,3.40
2023-01-07T12:53:28.158Z,3.30
2023-01-07T12:56:03.248Z,3.40
2023-01-07T12:58:48.452Z,3.30
2023-01-07T13:01:27.520Z,3.30
2023-01-07T13:04:07.838Z,3.20
2023-01-07T13:06:48.870Z,3.20
2023-01-07T13:09:31.286Z,3.40
2023-01-07T13:12:42.259Z,3.40
2023-01-07T13:15:28.703Z,3.30
2023-01-07T13:17:58.370Z,3.20
2023-01-07T13:21:13.499Z,3.20
2023-01-07T13:23:59.134Z,3.00
2023-01-07T13:26:37.427Z,3.00
2023-01-07T13:29:13.437Z,3.00
2023-01-07T13:32:04.989Z,2.90
2023-01-07T13:34:59.009Z,2.90
2023-01-07T13:37:41.006Z,2.80
2023-01-07T13:40:23.104Z,2.80
2023-01-07T13:43:11.717Z,2.70
2023-01-07T13:45:41.235Z,2.70
2023-01-07T13:48:22.166Z,2.50
2023-01-07T13:51:01.488Z,2.50
2023-01-07T13:53:32.778Z,2.40
2023-01-07T13:56:17.978Z,2.40
2023-01-07T13:58:46.009Z,2.30
2023-01-07T14:01:17.891Z,2.20
2023-01-07T14:03:53.657Z,2.10
2023-01-07T14:06:20.832Z,2.00
2023-01-07T14:09:04.934Z,2.10
2023-01-07T14:11:36.225Z,2.10
2023-01-07T14:14:27.428Z,2.00
2023-01-07T14:17:09.624Z,2.00
2023-01-07T14:20:00.961Z,2.00
2023-01-07T14:22:42.732Z,1.90
2023-01-07T14:25:40.252Z,1.90
2023-01-07T14:28:45.850Z,1.80
2023-01-07T14:31:39.173Z,1.80
2023-01-07T14:34:27.057Z,1.80
2023-01-07T14:37:06.493Z,1.70
2023-01-07T14:39:45.343Z,1.70
2023-01-07T14:42:21.198Z,1.60
2023-01-07T14:44:48.980Z,1.50
2023-01-07T14:47:44.898Z,1.30
2023-01-07T14:50:30.204Z,1.30
2023-01-07T14:52:57.064Z,1.20
2023-01-07T14:55:39.470Z,1.00
2023-01-07T14:58:15.744Z,1.00
2023-01-07T15:01:00.653Z,0.90
2023-01-07T15:04:02.820Z,0.90
2023-01-07T15:06:37.052Z,0.80
2023-01-07T15:09:27.801Z,0.90
2023-01-07T15:12:17.079Z,1.00
2023-01-07T15:15:26.754Z,0.80
2023-01-07T15:17:53.699Z,0.70
2023-01-07T15:20:20.866Z,0.60
2023-01-07T15:23:10.927Z,0.50
2023-01-07T15:26:09.018Z,0.60
2023-01-07T15:29:08.931Z,0.40
2023-01-07T15:31:50.989Z,0.30
2023-01-07T15:34:18.414Z,0.30
2023-01-07T15:36:48.895Z,0.30
2023-01-07T15:39:28.796Z,0.30
2023-01-07T15:41:57.499Z,0.40
2023-01-07T15:44:40.725Z,0.40
2023-01-07T15:47:27.037Z,0.50
2023-01-07T15:49:53.934Z,0.60
2023-01-07T15:52:26.928Z,0.80
2023-01-07T15:54:53.838Z,0.90
2023-01-07T15:57:31.867Z,0.90
2023-01-07T15:59:59.040Z,0.90
2023-01-07T16:02:29.972Z,1.00
2023-01-07T16:05:02.941Z,1.00
2023-01-07T16:07:55.717Z,1.10
2023-01-07T16:10:34.045Z,1.10
2023-01-07T16:13:06.517Z,1.20
2023-01-07T16:15:35.887Z,1.20
2023-01-07T16:18:15.996Z,1.30
2023-01-07T16:20:57.542Z,1.30
2023-01-07T16:23:31.499Z,1.30
2023-01-07T16:26:15.143Z,1.30
2023-01-07T16:28:47.663Z,1.30
2023-01-07T16:31:19.760Z,1.30
2023-01-07T16:33:50.545Z,1.30
2023-01-07T16:36:22.679Z,1.40
2023-01-07T16:42:50.432Z,1.40
2023-01-07T16:45:30.050Z,1.50
2023-01-07T16:48:13.554Z,1.50
2023-01-07T16:50:43.073Z,1.50
2023-01-07T16:53:22.644Z,1.50
2023-01-07T16:56:06.105Z,1.50
2023-01-07T16:58:53.057Z,1.60
2023-01-07T17:01:30.119Z,1.60
2023-01-07T17:03:59.831Z,1.60
2023-01-07T17:06:38.013Z,1.60
2023-01-07T17:09:06.703Z,1.70
2023-01-07T17:15:34.880Z,1.80
2023-01-07T17:18:16.933Z,1.80
2023-01-07T17:21:00.844Z,1.80
2023-01-07T17:23:27.786Z,1.80
2023-01-07T17:26:07.866Z,1.90
2023-01-07T17:28:43.434Z,1.90
2023-01-07T17:31:10.539Z,1.90
2023-01-07T17:33:37.648Z,2.00
2023-01-07T17:36:05.072Z,2.00
2023-01-07T17:38:32.284Z,2.10
2023-01-07T17:40:59.371Z,2.10
2023-01-07T17:43:37.754Z,2.10
2023-01-07T17:49:51.673Z,2.10
2023-01-07T17:52:18.650Z,2.20
2023-01-07T17:54:45.599Z,2.20
2023-01-07T17:57:12.891Z,2.20
2023-01-07T17:59:39.922Z,2.20
2023-01-07T18:02:15.877Z,2.30
2023-01-07T18:04:43.879Z,2.40
2023-01-07T18:07:16.943Z,2.30
2023-01-07T18:09:44.641Z,2.40
2023-01-07T18:12:31.134Z,2.40
2023-01-07T18:15:03.577Z,2.40
2023-01-07T18:17:30.954Z,2.40
2023-01-07T18:19:57.992Z,2.40
2023-01-07T18:22:25.526Z,2.50
2023-01-07T18:24:52.728Z,2.50
2023-01-07T18:27:22.699Z,2.50
2023-01-07T18:29:50.134Z,2.50
2023-01-07T18:32:17.247Z,2.60
2023-01-07T18:34:44.332Z,2.60
2023-01-07T18:37:11.385Z,2.60
2023-01-07T18:39:38.592Z,2.60
2023-01-07T18:42:05.730Z,2.60
2023-01-07T18:44:32.759Z,2.60
2023-01-07T18:46:59.874Z,2.70
2023-01-07T18:49:26.888Z,2.70
2023-01-07T18:51:53.867Z,2.70
2023-01-07T18:54:21.075Z,2.70
2023-01-07T18:56:48.208Z,2.70
2023-01-07T18:59:15.380Z,2.70
2023-01-07T19:01:42.809Z,2.70
2023-01-07T19:04:10.159Z,2.80
2023-01-07T19:06:37.281Z,2.80
2023-01-07T19:09:04.377Z,2.80
2023-01-07T19:11:31.684Z,2.80
2023-01-07T19:13:58.761Z,2.80
2023-01-07T19:16:25.807Z,2.80
2023-01-07T19:18:53.310Z,2.80
2023-01-07T19:21:21.551Z,2.80
2023-01-07T19:23:49.070Z,2.80
2023-01-07T19:26:16.118Z,2.80
2023-01-07T19:28:43.425Z,2.80
2023-01-07T19:31:11.557Z,2.80
2023-01-07T19:33:39.664Z,2.80
2023-01-07T19:36:11.607Z,2.80
2023-01-07T19:38:41.035Z,2.80
2023-01-07T19:41:13.172Z,2.80
2023-01-07T19:43:40.461Z,2.80
2023-01-07T19:46:08.351Z,2.80
2023-01-07T19:48:35.416Z,2.80
2023-01-07T19:51:03.818Z,2.80
2023-01-07T19:53:32.575Z,2.80
2023-01-07T19:56:08.169Z,2.80
2023-01-07T19:58:36.188Z,2.80
2023-01-07T20:01:12.644Z,2.80
2023-01-07T20:03:39.672Z,2.80
2023-01-07T20:06:10.232Z,2.90
2023-01-07T20:08:38.118Z,2.90
2023-01-07T20:11:05.376Z,2.90
2023-01-07T20:13:34.649Z,2.90
2023-01-07T20:19:48.763Z,2.90
2023-01-07T20:22:15.763Z,2.90
2023-01-07T20:24:42.800Z,2.90
2023-01-07T20:27:09.912Z,2.90
2023-01-07T20:29:38.784Z,2.90
2023-01-07T20:32:08.303Z,2.90
2023-01-07T20:34:35.387Z,2.90
2023-01-07T20:37:02.487Z,2.90
2023-01-07T20:39:29.499Z,2.90
2023-01-07T20:41:56.594Z,2.90
2023-01-07T20:44:23.683Z,2.90
2023-01-07T20:46:50.683Z,2.90
2023-01-07T20:49:17.738Z,3.00
2023-01-07T20:51:46.006Z,3.00
2023-01-07T20:54:13.782Z,3.00
2023-01-07T20:56:41.200Z,3.00
2023-01-07T20:59:08.839Z,3.00
2023-01-07T21:01:36.040Z,3.00
2023-01-07T21:04:03.362Z,3.00
2023-01-07T21:06:30.844Z,3.10
2023-01-07T21:08:57.956Z,3.00
2023-01-07T21:11:25.329Z,3.10
2023-01-07T21:13:52.744Z,3.00
2023-01-07T21:16:20.020Z,3.10
2023-01-07T21:18:47.242Z,3.10
2023-01-07T21:21:17.213Z,3.10
2023-01-07T21:23:46.892Z,3.10
2023-01-07T21:26:15.081Z,3.10
2023-01-07T21:28:44.311Z,3.20
2023-01-07T21:31:13.558Z,3.10
2023-01-07T21:33:41.254Z,3.20
2023-01-07T21:36:16.687Z,3.20
2023-01-07T21:38:44.719Z,3.20
2023-01-07T21:41:14.574Z,3.20
2023-01-07T21:43:41.790Z,3.20
2023-01-07T21:46:10.116Z,3.20
2023-01-07T21:48:40.109Z,3.20
2023-01-07T21:51:16.588Z,3.20
2023-01-07T21:53:43.575Z,3.20
2023-01-07T21:56:15.943Z,3.20
2023-01-07T21:58:44.426Z,3.20
2023-01-07T22:01:12.201Z,3.20
2023-01-07T22:03:39.633Z,3.20
2023-01-07T22:06:09.121Z,3.30
2023-01-07T22:08:36.563Z,3.30
2023-01-07T22:11:03.570Z,3.30
2023-01-07T22:13:30.569Z,3.30
2023-01-07T22:15:57.620Z,3.30
2023-01-07T22:18:24.657Z,3.30
2023-01-07T22:20:55.874Z,3.30
2023-01-07T22:23:23.244Z,3.40
2023-01-07T22:25:50.585Z,3.40
2023-01-07T22:28:19.601Z,3.40
2023-01-07T22:30:52.771Z,3.40
2023-01-07T22:33:19.866Z,3.40
2023-01-07T22:35:48.177Z,3.40
2023-01-07T22:38:15.582Z,3.40
2023-01-07T22:40:43.184Z,3.40
2023-01-07T22:43:14.579Z,3.40
2023-01-07T22:45:56.759Z,3.50
2023-01-07T22:48:27.366Z,3.40
2023-01-07T22:51:00.090Z,3.50
2023-01-07T22:53:29.258Z,3.50
2023-01-07T22:55:59.662Z,3.50
2023-01-07T22:58:26.708Z,3.50
2023-01-07T23:00:53.766Z,3.60
2023-01-07T23:03:22.317Z,3.60
2023-01-07T23:05:50.208Z,3.60
2023-01-07T23:08:18.240Z,3.60
2023-01-07T23:10:45.594Z,3.60
2023-01-07T23:13:12.839Z,3.70
2023-01-07T23:15:40.586Z,3.60
2023-01-07T23:18:09.916Z,3.70
2023-01-07T23:20:41.709Z,3.70
2023-01-07T23:23:09.428Z,3.70
2023-01-07T23:25:36.791Z,3.70
2023-01-07T23:28:04.896Z,3.70
2023-01-07T23:30:31.903Z,3.70
2023-01-07T23:32:58.940Z,3.70
2023-01-07T23:35:25.872Z,3.70
2023-01-07T23:37:52.891Z,3.70
2023-01-07T23:40:19.896Z,3.80
2023-01-07T23:42:49.243Z,3.80
2023-01-07T23:45:16.964Z,3.80
2023-01-07T23:47:44.158Z,3.80
2023-01-07T23:50:12.549Z,3.80
2023-01-07T23:52:40.117Z,3.80
2023-01-07T23:55:08.000Z,3.80
2023-01-07T23:57:34.987Z,3.80
